Phaethon — SVAM2 — position and weather

sailwx.info

Track history (hours):
 
Tides and Currents Weather Stations Pressure Air Temp Water Temp Dewpoint Dewpoint Depression Visibility Wind Speed Wind Dir Waves Ship Positions

Phaethon

Last reported at 2015-Mar-29 18:16 UTC. Time now 2015-May-24 11:09 UTC.
Position N 54°21' E 005°06'.
Warning: this ship's position is 55 days out of date.

Length 274 m; draft 9.5 m.

Type: Tanker. MMSI: 240836000.

Date/timePositionNaut miles runAvg speedWind from/ knotsBaromVisibWave heightAir tempDewpointWater temp
2015-Mar-29 18:16N 54°21' E 005°06'6 9.0
2015-Mar-29 17:33N 54°15' E 005°02'9 9.4
2015-Mar-29 16:33N 54°07' E 004°54'10 9.7
2015-Mar-29 15:32N 53°59' E 004°43'119 7.9
2015-Mar-29 00:27N 52°07' E 003°36'6 6.9
2015-Mar-28 23:33N 52°05' E 003°46'6 5.8
2015-Mar-28 22:33N 52°02' E 003°54'1010.5
2015-Mar-28 21:33N 51°57' E 004°09'1 0.7
2015-Mar-28 20:33N 51°57' E 004°10'0 0.0
2015-Mar-28 19:33N 51°57' E 004°10'0 0.0
2015-Mar-28 18:33N 51°57' E 004°10'0 0.0
2015-Mar-28 17:33N 51°57' E 004°10'0 0.0
2015-Mar-28 16:33N 51°57' E 004°10'0 0.0
2015-Mar-28 15:33N 51°57' E 004°10'0 0.0
2015-Mar-28 14:33N 51°57' E 004°10'0 0.0
2015-Mar-28 13:33N 51°57' E 004°10'0 0.0
2015-Mar-28 12:33N 51°57' E 004°10'0 0.0
2015-Mar-28 11:33N 51°57' E 004°10'0 0.0
2015-Mar-28 10:33N 51°57' E 004°10'0 0.0
2015-Mar-28 09:33N 51°57' E 004°10'0 0.0
2015-Mar-28 08:33N 51°57' E 004°10'0 0.0
2015-Mar-28 07:33N 51°57' E 004°10'0 0.0
2015-Mar-28 06:33N 51°57' E 004°10'0 0.0
2015-Mar-28 05:33N 51°57' E 004°10'0 0.0
2015-Mar-28 04:33N 51°57' E 004°10'0 0.0
2015-Mar-28 03:33N 51°57' E 004°10'0 0.0
2015-Mar-28 02:33N 51°57' E 004°10'0 0.0
2015-Mar-28 01:33N 51°57' E 004°10'0 0.0
2015-Mar-28 00:33N 51°57' E 004°10'0 0.0
2015-Mar-27 23:33N 51°57' E 004°10'0 0.0
2015-Mar-27 22:33N 51°57' E 004°10'0 0.0
2015-Mar-27 21:33N 51°57' E 004°10'0 0.0
2015-Mar-27 20:33N 51°57' E 004°10'0 0.0
2015-Mar-27 19:33N 51°57' E 004°10'0 0.0
2015-Mar-27 18:33N 51°57' E 004°10'0 0.0
2015-Mar-27 17:33N 51°57' E 004°10'0 0.0
2015-Mar-27 16:33N 51°57' E 004°10'0 0.0
2015-Mar-27 15:33N 51°57' E 004°10'2 2.1
2015-Mar-27 14:33N 51°58' E 004°07'9 9.5
2015-Mar-27 13:33N 52°02' E 003°53'10 9.4
2015-Mar-27 12:32N 52°00' E 003°37'1411.5
2015-Mar-27 11:19N 51°58' E 003°15'2 0.5
2015-Mar-27 06:29N 51°57' E 003°12'0 0.0
2015-Mar-26 20:06N 51°57' E 003°12'2 3.1
2015-Mar-26 19:25N 51°58' E 003°09'3210.8
2015-Mar-26 16:27N 51°40' E 002°27'1213.7
2015-Mar-26 15:33N 51°31' E 002°14'1313.4
2015-Mar-26 14:33N 51°21' E 001°59'1312.9
2015-Mar-26 13:34N 51°11' E 001°46'9 8.5
2015-Mar-26 12:34N 51°04' E 001°39'1111.1
2015-Mar-26 11:33N 50°56' E 001°26'4710.5
2015-Mar-26 07:09N 50°25' E 000°31'811.7
2015-Mar-26 06:28N 50°23' E 000°19'  
2015-Mar-23 04:31N 39°16' W 009°57'1212.3
2015-Mar-23 03:32N 39°04' W 009°57'1212.4
2015-Mar-23 02:31N 38°52' W 009°57'1212.0
2015-Mar-23 01:33N 38°40' W 009°56'1211.9
2015-Mar-23 00:33N 38°28' W 009°53'1212.3
2015-Mar-22 23:33N 38°16' W 009°49'1212.5
2015-Mar-22 22:33N 38°04' W 009°45'1312.3
2015-Mar-22 21:32N 37°52' W 009°42'1212.3
2015-Mar-22 20:33N 37°40' W 009°38'2612.4
2015-Mar-22 18:26N 37°15' W 009°31'4811.3
2015-Mar-22 14:12N 36°36' W 008°55'16812.3
2015-Mar-22 00:33N 35°59' W 005°32'1211.7
2015-Mar-21 23:33N 36°02' W 005°18'42712.4
2015-Mar-20 13:03N 37°12' E 003°26'611.9
2015-Mar-20 12:33N 37°13' E 003°34'1212.0
2015-Mar-20 11:33N 37°15' E 003°49'1312.1
2015-Mar-20 10:30N 37°16' E 004°05'1514.5
2015-Mar-20 09:26N 37°19' E 004°24'910.1
2015-Mar-20 08:33N 37°21' E 004°35'1312.7
2015-Mar-20 07:33N 37°23' E 004°51'3812.5
2015-Mar-20 04:28N 37°30' E 005°38'  
Track history (hours):
 
Tides and Currents Weather Stations Pressure Air Temp Water Temp Dewpoint Dewpoint Depression Visibility Wind Speed Wind Dir Waves Ship Positions

Phaethon

Last reported at 2015-Mar-29 18:16 UTC. Time now 2015-May-24 11:09 UTC.
Position N 54°21' E 005°06'.
Warning: this ship's position is 55 days out of date.

Length 274 m; draft 9.5 m.

Type: Tanker. MMSI: 240836000.

Date/timePositionNaut miles runAvg speedWind from/ knotsBaromVisibWave heightAir tempDewpointWater temp
2015-Mar-29 18:16N 54°21' E 005°06'6 9.0
2015-Mar-29 17:33N 54°15' E 005°02'9 9.4
2015-Mar-29 16:33N 54°07' E 004°54'10 9.7
2015-Mar-29 15:32N 53°59' E 004°43'119 7.9
2015-Mar-29 00:27N 52°07' E 003°36'6 6.9
2015-Mar-28 23:33N 52°05' E 003°46'6 5.8
2015-Mar-28 22:33N 52°02' E 003°54'1010.5
2015-Mar-28 21:33N 51°57' E 004°09'1 0.7
2015-Mar-28 20:33N 51°57' E 004°10'0 0.0
2015-Mar-28 19:33N 51°57' E 004°10'0 0.0
2015-Mar-28 18:33N 51°57' E 004°10'0 0.0
2015-Mar-28 17:33N 51°57' E 004°10'0 0.0
2015-Mar-28 16:33N 51°57' E 004°10'0 0.0
2015-Mar-28 15:33N 51°57' E 004°10'0 0.0
2015-Mar-28 14:33N 51°57' E 004°10'0 0.0
2015-Mar-28 13:33N 51°57' E 004°10'0 0.0
2015-Mar-28 12:33N 51°57' E 004°10'0 0.0
2015-Mar-28 11:33N 51°57' E 004°10'0 0.0
2015-Mar-28 10:33N 51°57' E 004°10'0 0.0
2015-Mar-28 09:33N 51°57' E 004°10'0 0.0
2015-Mar-28 08:33N 51°57' E 004°10'0 0.0
2015-Mar-28 07:33N 51°57' E 004°10'0 0.0
2015-Mar-28 06:33N 51°57' E 004°10'0 0.0
2015-Mar-28 05:33N 51°57' E 004°10'0 0.0
2015-Mar-28 04:33N 51°57' E 004°10'0 0.0
2015-Mar-28 03:33N 51°57' E 004°10'0 0.0
2015-Mar-28 02:33N 51°57' E 004°10'0 0.0
2015-Mar-28 01:33N 51°57' E 004°10'0 0.0
2015-Mar-28 00:33N 51°57' E 004°10'0 0.0
2015-Mar-27 23:33N 51°57' E 004°10'0 0.0
2015-Mar-27 22:33N 51°57' E 004°10'0 0.0
2015-Mar-27 21:33N 51°57' E 004°10'0 0.0
2015-Mar-27 20:33N 51°57' E 004°10'0 0.0
2015-Mar-27 19:33N 51°57' E 004°10'0 0.0
2015-Mar-27 18:33N 51°57' E 004°10'0 0.0
2015-Mar-27 17:33N 51°57' E 004°10'0 0.0
2015-Mar-27 16:33N 51°57' E 004°10'0 0.0
2015-Mar-27 15:33N 51°57' E 004°10'2 2.1
2015-Mar-27 14:33N 51°58' E 004°07'9 9.5
2015-Mar-27 13:33N 52°02' E 003°53'10 9.4
2015-Mar-27 12:32N 52°00' E 003°37'1411.5
2015-Mar-27 11:19N 51°58' E 003°15'2 0.5
2015-Mar-27 06:29N 51°57' E 003°12'0 0.0
2015-Mar-26 20:06N 51°57' E 003°12'2 3.1
2015-Mar-26 19:25N 51°58' E 003°09'3210.8
2015-Mar-26 16:27N 51°40' E 002°27'1213.7
2015-Mar-26 15:33N 51°31' E 002°14'1313.4
2015-Mar-26 14:33N 51°21' E 001°59'1312.9
2015-Mar-26 13:34N 51°11' E 001°46'9 8.5
2015-Mar-26 12:34N 51°04' E 001°39'1111.1
2015-Mar-26 11:33N 50°56' E 001°26'4710.5
2015-Mar-26 07:09N 50°25' E 000°31'811.7
2015-Mar-26 06:28N 50°23' E 000°19'  
2015-Mar-23 04:31N 39°16' W 009°57'1212.3
2015-Mar-23 03:32N 39°04' W 009°57'1212.4
2015-Mar-23 02:31N 38°52' W 009°57'1212.0
2015-Mar-23 01:33N 38°40' W 009°56'1211.9
2015-Mar-23 00:33N 38°28' W 009°53'1212.3
2015-Mar-22 23:33N 38°16' W 009°49'1212.5
2015-Mar-22 22:33N 38°04' W 009°45'1312.3
2015-Mar-22 21:32N 37°52' W 009°42'1212.3
2015-Mar-22 20:33N 37°40' W 009°38'2612.4
2015-Mar-22 18:26N 37°15' W 009°31'4811.3
2015-Mar-22 14:12N 36°36' W 008°55'16812.3
2015-Mar-22 00:33N 35°59' W 005°32'1211.7
2015-Mar-21 23:33N 36°02' W 005°18'42712.4
2015-Mar-20 13:03N 37°12' E 003°26'611.9
2015-Mar-20 12:33N 37°13' E 003°34'1212.0
2015-Mar-20 11:33N 37°15' E 003°49'1312.1
2015-Mar-20 10:30N 37°16' E 004°05'1514.5
2015-Mar-20 09:26N 37°19' E 004°24'910.1
2015-Mar-20 08:33N 37°21' E 004°35'1312.7
2015-Mar-20 07:33N 37°23' E 004°51'3812.5
2015-Mar-20 04:28N 37°30' E 005°38'  

Dump ship's entire track history